createdAt,value
2019-01-04T00:00:19.307Z,12.60
2019-01-04T00:01:19.266Z,12.30
2019-01-04T00:02:19.260Z,11.90
2019-01-04T00:03:19.163Z,12.30
2019-01-04T00:04:19.111Z,12.80
2019-01-04T00:05:19.111Z,13.20
2019-01-04T00:06:19.032Z,12.60
2019-01-04T00:07:18.991Z,13.00
2019-01-04T00:08:18.923Z,11.90
2019-01-04T00:09:18.884Z,13.10
2019-01-04T00:10:18.867Z,12.70
2019-01-04T00:11:18.803Z,12.00
2019-01-04T00:12:18.794Z,12.40
2019-01-04T00:13:18.701Z,12.40
2019-01-04T00:14:18.655Z,12.40
2019-01-04T00:15:18.737Z,12.70
2019-01-04T00:16:18.590Z,12.20
2019-01-04T00:17:18.529Z,12.00
2019-01-04T00:18:18.515Z,12.60
2019-01-04T00:19:18.434Z,12.60
2019-01-04T00:20:18.388Z,12.10
2019-01-04T00:21:18.343Z,12.70
2019-01-04T00:22:18.313Z,12.30
2019-01-04T00:23:18.253Z,12.30
2019-01-04T00:24:18.213Z,13.50
2019-01-04T00:25:18.218Z,12.80
2019-01-04T00:26:18.146Z,14.10
2019-01-04T00:27:18.100Z,12.20
2019-01-04T00:28:18.033Z,12.60
2019-01-04T00:29:18.010Z,12.70
2019-01-04T00:30:17.962Z,13.10
2019-01-04T00:31:17.970Z,12.40
2019-01-04T00:32:17.863Z,12.70
2019-01-04T00:33:17.875Z,12.20
2019-01-04T00:34:17.800Z,12.10
2019-01-04T00:35:17.728Z,12.90
2019-01-04T00:36:17.675Z,12.40
2019-01-04T00:37:17.662Z,13.70
2019-01-04T00:38:17.620Z,12.20
2019-01-04T00:39:17.571Z,12.40
2019-01-04T00:40:17.484Z,12.70
2019-01-04T00:41:17.446Z,12.90
2019-01-04T00:42:17.431Z,11.90
2019-01-04T00:43:17.381Z,11.90
2019-01-04T00:44:17.314Z,12.90
2019-01-04T00:45:17.335Z,12.30
2019-01-04T00:46:17.230Z,12.90
2019-01-04T00:47:17.192Z,12.80
2019-01-04T00:48:17.186Z,12.10
2019-01-04T00:49:17.164Z,12.50
2019-01-04T00:50:17.045Z,12.90
2019-01-04T00:51:16.980Z,13.00
2019-01-04T00:52:16.957Z,13.50
2019-01-04T00:53:16.916Z,13.00
2019-01-04T00:54:16.859Z,13.60
2019-01-04T00:55:16.810Z,13.30
2019-01-04T00:56:16.753Z,13.70
2019-01-04T00:57:16.729Z,12.80
2019-01-04T00:58:16.682Z,12.70
2019-01-04T00:59:16.637Z,13.50
2019-01-04T01:00:16.591Z,13.30
2019-01-04T01:01:16.536Z,13.30
2019-01-04T01:02:16.496Z,13.10
2019-01-04T01:03:16.466Z,13.20
2019-01-04T01:04:16.521Z,12.60
2019-01-04T01:05:16.387Z,12.50
2019-01-04T01:06:16.316Z,11.90
2019-01-04T01:07:16.300Z,12.70
2019-01-04T01:08:16.229Z,13.20
2019-01-04T01:09:16.185Z,12.20
2019-01-04T01:10:16.224Z,12.40
2019-01-04T01:11:16.114Z,12.00
2019-01-04T01:12:16.047Z,11.90
2019-01-04T01:13:16.021Z,12.80
2019-01-04T01:14:15.956Z,12.80
2019-01-04T01:15:15.902Z,12.50
2019-01-04T01:16:15.874Z,12.00
2019-01-04T01:17:15.865Z,12.30
2019-01-04T01:18:15.764Z,11.80
2019-01-04T01:19:15.728Z,12.20
2019-01-04T01:20:15.684Z,12.30
2019-01-04T01:21:15.646Z,12.10
2019-01-04T01:22:15.598Z,12.50
2019-01-04T01:23:15.553Z,11.60
2019-01-04T01:24:15.496Z,11.50
2019-01-04T01:25:15.455Z,12.00
2019-01-04T01:26:15.418Z,11.70
2019-01-04T01:27:15.367Z,12.20
2019-01-04T01:28:15.328Z,11.30
2019-01-04T01:29:15.273Z,12.00
2019-01-04T01:30:15.255Z,11.90
2019-01-04T01:31:15.179Z,11.60
2019-01-04T01:32:15.155Z,10.90
2019-01-04T01:33:15.099Z,11.30
2019-01-04T01:34:15.052Z,12.00
2019-01-04T01:35:15.028Z,11.30
2019-01-04T01:36:14.960Z,11.40
2019-01-04T01:37:14.927Z,11.70
2019-01-04T01:38:14.876Z,11.20
2019-01-04T01:39:14.825Z,11.60
2019-01-04T01:40:14.791Z,10.70
2019-01-04T01:41:14.751Z,11.10
2019-01-04T01:42:14.699Z,10.50
2019-01-04T01:43:14.660Z,10.90
2019-01-04T01:44:14.621Z,11.30
2019-01-04T01:45:14.594Z,12.00
2019-01-04T01:46:14.522Z,11.40
2019-01-04T01:47:14.472Z,12.30
2019-01-04T01:48:14.420Z,11.10
2019-01-04T01:49:14.394Z,11.30
2019-01-04T01:50:14.349Z,10.50
2019-01-04T01:51:14.307Z,11.00
2019-01-04T01:52:14.253Z,10.30
2019-01-04T01:53:14.208Z,10.90
2019-01-04T01:54:14.153Z,11.60
2019-01-04T01:55:14.134Z,9.90
2019-01-04T01:56:14.082Z,10.40
2019-01-04T01:57:14.020Z,10.20
2019-01-04T01:58:13.969Z,10.20
2019-01-04T01:59:13.944Z,10.80
2019-01-04T02:00:13.887Z,10.70
2019-01-04T02:01:13.845Z,10.90
2019-01-04T02:02:13.801Z,10.70
2019-01-04T02:03:13.764Z,9.90
2019-01-04T02:04:13.709Z,10.70
2019-01-04T02:05:13.666Z,10.90
2019-01-04T02:06:13.618Z,10.80
2019-01-04T02:07:13.580Z,10.20
2019-01-04T02:08:13.540Z,10.20
2019-01-04T02:09:13.494Z,10.30
2019-01-04T02:10:13.466Z,9.80
2019-01-04T02:11:13.405Z,10.30
2019-01-04T02:12:13.356Z,10.10
2019-01-04T02:13:13.300Z,9.90
2019-01-04T02:14:13.277Z,10.30
2019-01-04T02:15:13.210Z,10.00
2019-01-04T02:16:13.160Z,10.50
2019-01-04T02:17:13.134Z,10.00
2019-01-04T02:18:13.082Z,9.50
